createdAt,value
2022-08-17T00:00:06.788Z,21.20
2022-08-17T00:02:57.140Z,21.20
2022-08-17T00:05:27.179Z,21.10
2022-08-17T00:07:54.336Z,21.10
2022-08-17T00:10:22.002Z,21.10
2022-08-17T00:12:49.255Z,21.10
2022-08-17T00:15:18.237Z,21.00
2022-08-17T00:17:47.749Z,21.00
2022-08-17T00:20:16.024Z,21.00
2022-08-17T00:22:47.210Z,20.90
2022-08-17T00:25:18.454Z,20.90
2022-08-17T00:27:46.461Z,20.90
2022-08-17T00:30:14.243Z,20.80
2022-08-17T00:33:23.257Z,20.80
2022-08-17T00:35:32.039Z,20.80
2022-08-17T00:38:00.617Z,20.70
2022-08-17T00:40:27.625Z,20.70
2022-08-17T00:43:14.080Z,20.70
2022-08-17T00:45:42.414Z,20.70
2022-08-17T00:48:29.223Z,20.70
2022-08-17T00:51:08.137Z,20.60
2022-08-17T00:53:43.365Z,20.60
2022-08-17T00:56:16.701Z,20.60
2022-08-17T00:58:43.785Z,20.50
2022-08-17T01:01:12.579Z,20.50
2022-08-17T01:03:50.243Z,20.50
2022-08-17T01:06:18.233Z,20.50
2022-08-17T01:08:46.774Z,20.40
2022-08-17T01:11:13.566Z,20.40
2022-08-17T01:13:43.744Z,20.40
2022-08-17T01:16:18.203Z,20.30
2022-08-17T01:18:50.387Z,20.30
2022-08-17T01:21:29.096Z,20.30
2022-08-17T01:23:57.574Z,20.30
2022-08-17T01:26:24.548Z,20.20
2022-08-17T01:28:55.776Z,20.20
2022-08-17T01:31:32.546Z,20.20
2022-08-17T01:34:05.821Z,20.10
2022-08-17T01:36:34.631Z,20.10
2022-08-17T01:39:04.484Z,20.10
2022-08-17T01:41:31.714Z,20.10
2022-08-17T01:44:03.981Z,20.10
2022-08-17T01:46:36.390Z,20.00
2022-08-17T01:49:07.170Z,20.00
2022-08-17T01:51:34.310Z,20.00
2022-08-17T01:54:07.007Z,20.00
2022-08-17T01:56:38.487Z,19.90
2022-08-17T01:59:05.575Z,19.90
2022-08-17T02:01:35.106Z,19.90
2022-08-17T02:04:04.490Z,19.90
2022-08-17T02:06:52.754Z,19.90
2022-08-17T02:09:27.184Z,19.80
2022-08-17T02:12:38.324Z,19.80
2022-08-17T02:14:47.986Z,19.80
2022-08-17T02:17:14.933Z,19.80
2022-08-17T02:19:41.855Z,19.70
2022-08-17T02:22:09.134Z,19.70
2022-08-17T02:25:00.058Z,19.70
2022-08-17T02:27:25.704Z,19.70
2022-08-17T02:29:52.708Z,19.60
2022-08-17T02:32:27.224Z,19.60
2022-08-17T02:35:02.488Z,19.60
2022-08-17T02:37:30.508Z,19.60
2022-08-17T02:39:59.927Z,19.60
2022-08-17T02:42:30.761Z,19.60
2022-08-17T02:44:57.962Z,19.50
2022-08-17T02:47:24.864Z,19.50
2022-08-17T02:49:54.495Z,19.50
2022-08-17T02:52:43.350Z,19.40
2022-08-17T02:55:17.332Z,19.40
2022-08-17T02:57:45.106Z,19.40
2022-08-17T03:00:16.152Z,19.40
2022-08-17T03:02:45.255Z,19.40
2022-08-17T03:05:16.683Z,19.30
2022-08-17T03:07:43.992Z,19.30
2022-08-17T03:10:13.246Z,19.30
2022-08-17T03:12:42.406Z,19.30
2022-08-17T03:15:14.721Z,19.30
2022-08-17T03:17:42.078Z,19.20
2022-08-17T03:20:11.510Z,19.20
2022-08-17T03:22:42.247Z,19.20
2022-08-17T03:25:25.292Z,19.20
2022-08-17T03:27:53.459Z,19.20
2022-08-17T03:30:21.467Z,19.20
2022-08-17T03:32:52.218Z,19.20
2022-08-17T03:35:28.123Z,19.10
2022-08-17T03:37:56.990Z,19.10
2022-08-17T03:40:39.903Z,19.10
2022-08-17T03:43:21.839Z,19.10
2022-08-17T03:45:51.013Z,19.10
2022-08-17T03:48:20.941Z,19.00
2022-08-17T03:50:47.904Z,19.00
2022-08-17T03:53:17.128Z,19.00
2022-08-17T03:55:45.549Z,19.00
2022-08-17T03:58:12.392Z,19.00
2022-08-17T04:00:39.895Z,18.90
2022-08-17T04:03:06.860Z,18.90
2022-08-17T04:05:36.353Z,18.90
2022-08-17T04:08:05.243Z,18.90
2022-08-17T04:10:33.888Z,18.90
2022-08-17T04:13:03.548Z,18.90
2022-08-17T04:15:31.489Z,18.90
2022-08-17T04:17:58.824Z,18.90
2022-08-17T04:20:26.242Z,18.80
2022-08-17T04:22:59.474Z,18.80
2022-08-17T04:25:27.150Z,18.80
2022-08-17T04:27:54.464Z,18.90
2022-08-17T04:30:23.036Z,18.90
2022-08-17T04:33:19.131Z,18.90
2022-08-17T04:35:49.457Z,18.90
2022-08-17T04:38:20.191Z,18.90
2022-08-17T04:40:47.940Z,19.00
2022-08-17T04:43:19.973Z,19.00
2022-08-17T04:45:55.120Z,19.10
2022-08-17T04:48:27.868Z,19.10
2022-08-17T04:51:05.114Z,19.20
2022-08-17T04:53:32.048Z,19.20
2022-08-17T04:55:58.939Z,19.30
2022-08-17T04:58:26.250Z,19.30
2022-08-17T05:00:54.522Z,19.30
2022-08-17T05:03:21.436Z,19.30
2022-08-17T05:05:48.583Z,19.30
2022-08-17T05:08:18.337Z,19.30
2022-08-17T05:10:45.947Z,19.30
2022-08-17T05:13:17.315Z,19.40
2022-08-17T05:15:47.783Z,19.50
2022-08-17T05:18:17.196Z,19.60
2022-08-17T05:20:44.842Z,19.60
2022-08-17T05:23:16.170Z,19.70
2022-08-17T05:25:47.646Z,19.80
2022-08-17T05:28:16.254Z,19.90
2022-08-17T05:30:45.595Z,20.00
2022-08-17T05:33:22.395Z,20.10
2022-08-17T05:35:53.455Z,20.20
2022-08-17T05:38:24.339Z,20.30
2022-08-17T05:40:52.489Z,20.40
2022-08-17T05:43:23.711Z,20.50
2022-08-17T05:49:03.472Z,20.70
2022-08-17T05:52:19.841Z,20.80
2022-08-17T05:55:18.855Z,20.80
2022-08-17T05:58:05.046Z,20.80
2022-08-17T06:00:47.211Z,20.90
2022-08-17T06:03:36.516Z,21.00
2022-08-17T06:06:41.706Z,21.10
2022-08-17T06:09:33.802Z,21.20
2022-08-17T06:12:19.934Z,21.30
2022-08-17T06:15:10.373Z,21.40
2022-08-17T06:17:38.655Z,21.50
2022-08-17T06:20:11.360Z,21.60
2022-08-17T06:22:47.268Z,21.70
2022-08-17T06:25:19.388Z,21.80
2022-08-17T06:27:54.034Z,22.00
2022-08-17T06:30:24.760Z,22.20
2022-08-17T06:32:55.909Z,22.40
2022-08-17T06:35:34.068Z,22.50
2022-08-17T06:38:21.820Z,22.70
2022-08-17T06:41:14.174Z,22.80
2022-08-17T06:44:02.470Z,23.00
2022-08-17T06:46:37.404Z,23.10
2022-08-17T06:49:17.159Z,23.30
2022-08-17T06:51:51.506Z,23.60
2022-08-17T06:54:33.877Z,23.80
2022-08-17T06:57:14.561Z,24.10
2022-08-17T06:59:54.779Z,24.30
2022-08-17T07:03:02.076Z,24.50
2022-08-17T07:05:36.956Z,24.80
2022-08-17T07:08:16.151Z,24.90
2022-08-17T07:10:51.057Z,25.20
2022-08-17T07:13:37.653Z,25.60
2022-08-17T07:16:18.434Z,25.80
2022-08-17T07:18:46.729Z,26.00
2022-08-17T07:21:38.084Z,26.20
2022-08-17T07:24:31.120Z,26.40
2022-08-17T07:27:17.448Z,26.60
2022-08-17T07:29:50.742Z,26.80
2022-08-17T07:32:24.157Z,27.00
2022-08-17T07:35:19.908Z,27.20
2022-08-17T07:37:50.681Z,27.50
2022-08-17T07:40:26.213Z,27.70
2022-08-17T07:43:24.272Z,28.10
2022-08-17T07:46:14.208Z,28.30
2022-08-17T07:48:46.409Z,28.30
2022-08-17T07:51:38.262Z,28.50
2022-08-17T07:54:21.167Z,28.80
2022-08-17T07:56:51.316Z,29.00
2022-08-17T07:59:24.058Z,29.20
2022-08-17T08:02:17.730Z,29.50
2022-08-17T08:05:01.840Z,29.80
2022-08-17T08:07:33.355Z,30.10
2022-08-17T08:10:06.468Z,30.30
2022-08-17T08:12:38.900Z,30.40
2022-08-17T08:15:17.718Z,30.40
2022-08-17T08:17:54.626Z,30.50
2022-08-17T08:20:50.937Z,30.50
2022-08-17T08:23:37.420Z,30.40
2022-08-17T08:26:25.589Z,30.50
2022-08-17T08:29:09.696Z,30.40
2022-08-17T08:31:56.392Z,30.40
2022-08-17T08:34:53.226Z,30.40
2022-08-17T08:37:50.987Z,30.30
2022-08-17T08:40:40.026Z,30.30
2022-08-17T08:43:22.743Z,30.40
2022-08-17T08:46:00.468Z,30.50
2022-08-17T08:49:10.121Z,30.70
2022-08-17T08:51:53.055Z,30.90
2022-08-17T08:54:36.308Z,31.10
2022-08-17T08:57:25.619Z,31.10
2022-08-17T09:00:11.135Z,31.00
2022-08-17T09:03:15.448Z,31.10
2022-08-17T09:06:28.720Z,31.10
2022-08-17T09:09:17.669Z,31.40
2022-08-17T09:12:02.603Z,31.60
2022-08-17T09:14:45.083Z,31.90
2022-08-17T09:17:19.687Z,31.90
2022-08-17T09:19:54.716Z,31.90
2022-08-17T09:22:33.350Z,31.90
2022-08-17T09:25:09.709Z,31.90
2022-08-17T09:27:52.170Z,32.20
2022-08-17T09:30:20.383Z,32.60
2022-08-17T09:32:52.764Z,33.10
2022-08-17T09:35:23.942Z,33.30
2022-08-17T09:37:59.043Z,33.50
2022-08-17T09:40:32.996Z,33.60
2022-08-17T09:43:07.608Z,33.70
2022-08-17T09:45:42.690Z,33.80
2022-08-17T09:48:18.040Z,33.80
2022-08-17T09:51:01.588Z,33.90
2022-08-17T09:53:38.264Z,34.10
2022-08-17T09:56:33.261Z,34.10
2022-08-17T09:59:40.236Z,34.30
2022-08-17T10:02:48.825Z,34.40
2022-08-17T10:05:22.542Z,34.50
2022-08-17T10:08:00.838Z,34.60
2022-08-17T10:10:38.897Z,34.40
2022-08-17T10:13:19.291Z,34.40
2022-08-17T10:16:00.775Z,34.60
2022-08-17T10:18:48.425Z,34.90
2022-08-17T10:21:18.284Z,35.40
2022-08-17T10:23:52.456Z,35.60
2022-08-17T10:26:26.034Z,35.70
2022-08-17T10:28:59.523Z,35.70
2022-08-17T10:31:35.683Z,35.70
2022-08-17T10:34:53.914Z,35.70
2022-08-17T10:37:49.060Z,36.10
2022-08-17T10:40:35.435Z,36.50
2022-08-17T10:43:23.176Z,36.60
2022-08-17T10:46:10.581Z,36.70
2022-08-17T10:49:28.064Z,36.90
2022-08-17T10:51:58.324Z,37.00
2022-08-17T10:54:46.437Z,37.10
2022-08-17T10:57:40.579Z,37.30
2022-08-17T11:00:14.933Z,37.50
2022-08-17T11:02:48.394Z,37.40
2022-08-17T11:05:54.297Z,37.20
2022-08-17T11:08:53.507Z,37.00
2022-08-17T11:11:44.650Z,36.40
2022-08-17T11:14:42.937Z,36.00
2022-08-17T11:17:38.429Z,35.60
2022-08-17T11:20:33.897Z,35.00
2022-08-17T11:23:40.758Z,34.40
2022-08-17T11:26:25.583Z,34.00
2022-08-17T11:28:58.077Z,33.90
2022-08-17T11:31:37.815Z,34.00
2022-08-17T11:34:17.685Z,34.40
2022-08-17T11:37:20.502Z,34.50
2022-08-17T11:40:19.319Z,34.90
2022-08-17T11:43:05.981Z,35.10
2022-08-17T11:46:02.739Z,35.00
2022-08-17T11:48:40.046Z,34.60
2022-08-17T11:51:14.484Z,34.30
2022-08-17T11:56:52.994Z,33.80
2022-08-17T11:59:57.692Z,33.80
2022-08-17T12:02:46.968Z,33.80
2022-08-17T12:05:33.807Z,33.80
2022-08-17T12:08:16.901Z,33.80
2022-08-17T12:11:10.875Z,33.70
2022-08-17T12:13:46.681Z,33.60
2022-08-17T12:16:16.320Z,33.50
2022-08-17T12:18:51.249Z,33.30
2022-08-17T12:21:45.426Z,33.10
2022-08-17T12:24:29.704Z,33.00
2022-08-17T12:26:59.697Z,32.90
2022-08-17T12:29:35.914Z,32.80
2022-08-17T12:32:06.888Z,32.80
2022-08-17T12:34:39.411Z,32.90
2022-08-17T12:37:16.732Z,32.80
2022-08-17T12:39:55.916Z,32.80
2022-08-17T12:42:29.192Z,32.80
2022-08-17T12:44:57.180Z,32.70
2022-08-17T12:47:25.075Z,32.70
2022-08-17T12:50:08.346Z,32.70
2022-08-17T12:52:59.633Z,32.60
2022-08-17T12:55:36.223Z,32.60
2022-08-17T12:58:04.212Z,32.60
2022-08-17T13:00:33.782Z,32.50
2022-08-17T13:03:04.368Z,32.50
2022-08-17T13:05:34.931Z,32.50
2022-08-17T13:08:14.159Z,32.40
2022-08-17T13:10:43.510Z,32.30
2022-08-17T13:13:21.947Z,32.10
2022-08-17T13:15:55.231Z,31.90
2022-08-17T13:18:43.637Z,31.80
2022-08-17T13:21:25.976Z,31.70
2022-08-17T13:24:00.000Z,31.60
2022-08-17T13:26:34.103Z,31.50
2022-08-17T13:29:05.005Z,31.40
2022-08-17T13:31:42.885Z,31.40
2022-08-17T13:34:38.675Z,31.30
2022-08-17T13:37:33.671Z,31.30
2022-08-17T13:40:19.843Z,31.30
2022-08-17T13:42:52.681Z,31.30
2022-08-17T13:45:50.691Z,31.40
2022-08-17T13:48:28.551Z,31.50
2022-08-17T13:51:25.325Z,31.50
2022-08-17T13:54:08.215Z,31.70
2022-08-17T13:56:55.363Z,31.80
2022-08-17T13:59:36.364Z,31.90
2022-08-17T14:02:21.508Z,31.90
2022-08-17T14:04:49.169Z,31.90
2022-08-17T14:10:26.720Z,31.80
2022-08-17T14:12:54.053Z,31.70
2022-08-17T14:15:55.985Z,31.70
2022-08-17T14:18:12.362Z,31.60
2022-08-17T14:20:39.972Z,31.50
2022-08-17T14:23:07.008Z,31.40
2022-08-17T14:25:34.342Z,31.40
2022-08-17T14:28:02.154Z,31.40
2022-08-17T14:30:30.345Z,31.40
2022-08-17T14:32:58.447Z,31.40
2022-08-17T14:35:25.979Z,31.40
2022-08-17T14:37:53.345Z,31.40
2022-08-17T14:40:22.146Z,31.50
2022-08-17T14:42:49.248Z,31.50
2022-08-17T14:45:30.324Z,31.60
2022-08-17T14:48:02.897Z,31.70
2022-08-17T14:50:30.274Z,31.70
2022-08-17T14:52:59.284Z,31.70
2022-08-17T14:55:28.662Z,31.80
2022-08-17T14:57:55.624Z,31.80
2022-08-17T15:00:23.331Z,31.70
2022-08-17T15:02:53.380Z,31.60
2022-08-17T15:05:24.383Z,31.50
2022-08-17T15:07:52.603Z,31.40
2022-08-17T15:10:20.293Z,31.40
2022-08-17T15:12:47.461Z,31.40
2022-08-17T15:15:17.304Z,31.40
2022-08-17T15:17:45.954Z,31.50
2022-08-17T15:20:16.233Z,31.50
2022-08-17T15:22:47.067Z,31.50
2022-08-17T15:25:14.653Z,31.40
2022-08-17T15:27:42.214Z,31.30
2022-08-17T15:30:10.881Z,31.20
2022-08-17T15:32:51.484Z,31.20
2022-08-17T15:35:28.026Z,31.20
2022-08-17T15:37:58.273Z,31.00
2022-08-17T15:40:25.286Z,30.90
2022-08-17T15:42:52.204Z,30.90
2022-08-17T15:45:24.178Z,30.90
2022-08-17T15:47:51.335Z,30.90
2022-08-17T15:50:18.541Z,30.90
2022-08-17T15:52:45.583Z,30.90
2022-08-17T15:55:15.081Z,30.90
2022-08-17T15:57:42.325Z,30.90
2022-08-17T16:00:10.745Z,30.80
2022-08-17T16:03:15.061Z,30.70
2022-08-17T16:05:30.164Z,30.50
2022-08-17T16:07:58.817Z,30.40
2022-08-17T16:10:33.954Z,30.30
2022-08-17T16:13:02.008Z,30.20
2022-08-17T16:15:28.959Z,30.20
2022-08-17T16:17:56.124Z,30.10
2022-08-17T16:20:23.452Z,30.00
2022-08-17T16:22:50.756Z,29.90
2022-08-17T16:25:21.883Z,29.90
2022-08-17T16:27:51.264Z,29.80
2022-08-17T16:30:19.443Z,29.70
2022-08-17T16:32:50.079Z,29.60
2022-08-17T16:35:18.181Z,29.60
2022-08-17T16:37:45.658Z,29.60
2022-08-17T16:40:15.112Z,29.50
2022-08-17T16:42:42.619Z,29.50
2022-08-17T16:45:14.790Z,29.50
2022-08-17T16:47:41.800Z,29.50
2022-08-17T16:50:12.039Z,29.50
2022-08-17T16:52:40.300Z,29.50
2022-08-17T16:55:13.254Z,29.40
2022-08-17T16:57:47.520Z,29.30
2022-08-17T17:00:19.350Z,29.20
2022-08-17T17:02:48.403Z,29.10
2022-08-17T17:05:33.272Z,29.00
2022-08-17T17:08:07.692Z,28.90
2022-08-17T17:10:40.119Z,28.80
2022-08-17T17:13:17.173Z,28.70
2022-08-17T17:15:57.305Z,28.60
2022-08-17T17:18:38.671Z,28.60
2022-08-17T17:21:12.301Z,28.50
2022-08-17T17:23:50.245Z,28.40
2022-08-17T17:26:48.157Z,28.30
2022-08-17T17:29:47.776Z,28.30
2022-08-17T17:32:28.093Z,28.20
2022-08-17T17:38:07.312Z,28.00
2022-08-17T17:40:40.225Z,28.00
2022-08-17T17:43:35.243Z,28.00
2022-08-17T17:46:27.675Z,27.80
2022-08-17T17:48:51.737Z,27.70
2022-08-17T17:52:01.972Z,27.60
2022-08-17T17:54:31.521Z,27.50
2022-08-17T17:57:11.222Z,27.40
2022-08-17T17:59:56.539Z,27.30
2022-08-17T18:02:38.843Z,27.20
2022-08-17T18:05:20.982Z,27.10
2022-08-17T18:07:59.786Z,27.00
2022-08-17T18:10:34.173Z,26.90
2022-08-17T18:13:18.774Z,26.90
2022-08-17T18:15:48.509Z,26.80
2022-08-17T18:18:38.899Z,26.70
2022-08-17T18:21:13.148Z,26.70
2022-08-17T18:23:47.640Z,26.60
2022-08-17T18:26:39.934Z,26.50
2022-08-17T18:29:33.612Z,26.40
2022-08-17T18:32:30.447Z,26.30
2022-08-17T18:35:02.117Z,26.20
2022-08-17T18:37:41.950Z,26.10
2022-08-17T18:40:32.168Z,26.10
2022-08-17T18:43:08.787Z,26.10
2022-08-17T18:45:43.073Z,26.00
2022-08-17T18:48:22.952Z,25.90
2022-08-17T18:50:53.449Z,25.80
2022-08-17T18:53:35.856Z,25.80
2022-08-17T18:56:30.579Z,25.70
2022-08-17T18:59:37.960Z,25.70
2022-08-17T19:02:37.329Z,25.60
2022-08-17T19:05:25.226Z,25.60
2022-08-17T19:07:52.694Z,25.60
2022-08-17T19:10:26.154Z,25.50
2022-08-17T19:13:01.608Z,25.40
2022-08-17T19:15:46.022Z,25.30
2022-08-17T19:18:38.305Z,25.20
2022-08-17T19:21:11.281Z,25.10
2022-08-17T19:23:53.899Z,25.00
2022-08-17T19:26:53.690Z,24.80
2022-08-17T19:29:23.766Z,24.50
2022-08-17T19:31:51.913Z,24.00
2022-08-17T19:34:30.064Z,23.60
2022-08-17T19:37:09.803Z,23.10
2022-08-17T19:39:48.677Z,22.80
2022-08-17T19:42:32.153Z,22.70
2022-08-17T19:45:10.463Z,22.60
2022-08-17T19:47:55.339Z,22.40
2022-08-17T19:50:34.918Z,22.40
2022-08-17T19:53:14.936Z,22.30
2022-08-17T19:55:56.033Z,22.30
2022-08-17T19:58:41.842Z,22.30
2022-08-17T20:01:20.165Z,22.30
2022-08-17T20:03:57.726Z,22.40
2022-08-17T20:06:28.981Z,22.40
2022-08-17T20:09:12.954Z,22.50
2022-08-17T20:11:48.127Z,22.50
2022-08-17T20:14:22.437Z,22.60
2022-08-17T20:16:49.707Z,22.60
2022-08-17T20:19:35.421Z,22.70
2022-08-17T20:22:15.624Z,22.70
2022-08-17T20:24:53.037Z,22.70
2022-08-17T20:27:31.673Z,22.80
2022-08-17T20:30:08.696Z,22.80
2022-08-17T20:32:51.172Z,22.80
2022-08-17T20:35:25.931Z,22.70
2022-08-17T20:38:00.388Z,22.70
2022-08-17T20:40:33.440Z,22.80
2022-08-17T20:43:46.776Z,22.80
2022-08-17T20:46:30.284Z,22.70
2022-08-17T20:49:15.706Z,22.60
2022-08-17T20:52:01.023Z,22.50
2022-08-17T20:54:48.230Z,22.50
2022-08-17T20:57:46.905Z,22.50
2022-08-17T21:00:45.663Z,22.50
2022-08-17T21:03:50.813Z,22.40
2022-08-17T21:06:25.235Z,22.40
2022-08-17T21:08:57.301Z,22.30
2022-08-17T21:12:04.491Z,22.30
2022-08-17T21:15:00.642Z,22.30
2022-08-17T21:17:48.860Z,22.20
2022-08-17T21:20:42.471Z,22.20
2022-08-17T21:23:35.547Z,22.20
2022-08-17T21:26:19.530Z,22.20
2022-08-17T21:29:17.891Z,22.20
2022-08-17T21:32:19.278Z,22.10
2022-08-17T21:35:44.665Z,22.10
2022-08-17T21:38:15.699Z,22.00
2022-08-17T21:40:47.377Z,22.00
2022-08-17T21:43:24.213Z,22.00
2022-08-17T21:46:00.915Z,21.90
2022-08-17T21:48:30.836Z,21.90
2022-08-17T21:51:09.625Z,21.80
2022-08-17T21:53:44.960Z,21.80
2022-08-17T21:56:22.028Z,21.80
2022-08-17T21:59:00.357Z,21.80
2022-08-17T22:01:31.671Z,21.80
2022-08-17T22:04:05.025Z,21.80
2022-08-17T22:06:39.116Z,21.70
2022-08-17T22:09:18.018Z,21.70
2022-08-17T22:12:01.518Z,21.70
2022-08-17T22:14:52.776Z,21.60
2022-08-17T22:17:25.213Z,21.60
2022-08-17T22:19:55.597Z,21.60
2022-08-17T22:22:34.749Z,21.60
2022-08-17T22:25:07.161Z,21.60
2022-08-17T22:27:54.913Z,21.60
2022-08-17T22:30:34.245Z,21.60
2022-08-17T22:33:30.358Z,21.60
2022-08-17T22:36:20.029Z,21.60
2022-08-17T22:38:52.863Z,21.60
2022-08-17T22:41:41.653Z,21.60
2022-08-17T22:44:25.792Z,21.60
2022-08-17T22:47:04.155Z,21.60
2022-08-17T22:49:36.808Z,21.60
2022-08-17T22:52:22.178Z,21.50
2022-08-17T22:55:08.304Z,21.50
2022-08-17T22:57:36.848Z,21.40
2022-08-17T23:00:26.197Z,21.40
2022-08-17T23:03:11.748Z,21.30
2022-08-17T23:05:41.264Z,21.30
2022-08-17T23:08:08.339Z,21.20
2022-08-17T23:10:36.655Z,21.20
2022-08-17T23:13:04.066Z,21.20
2022-08-17T23:15:31.018Z,21.20
2022-08-17T23:17:57.916Z,21.10
2022-08-17T23:20:25.041Z,21.10
2022-08-17T23:22:53.150Z,21.10
2022-08-17T23:25:26.902Z,21.00
2022-08-17T23:27:56.369Z,21.00
2022-08-17T23:30:23.268Z,20.90
2022-08-17T23:32:53.877Z,20.90
2022-08-17T23:35:40.052Z,20.80
2022-08-17T23:38:09.400Z,20.80
2022-08-17T23:40:37.527Z,20.80
2022-08-17T23:43:11.468Z,20.70
2022-08-17T23:45:50.707Z,20.70
2022-08-17T23:48:36.189Z,20.70
2022-08-17T23:51:09.642Z,20.70
2022-08-17T23:53:42.021Z,20.70
2022-08-17T23:56:10.349Z,20.70
2022-08-17T23:58:40.974Z,20.70
